sensor_id;sensor_type;location;lat;lon;timestamp;temperature;humidity
22742;DHT22;11538;48.884;8.696;2023-06-05T00:02:12;15.70;99.90
22742;DHT22;11538;48.884;8.696;2023-06-05T00:04:39;15.60;99.90
22742;DHT22;11538;48.884;8.696;2023-06-05T00:07:07;15.60;99.90
22742;DHT22;11538;48.884;8.696;2023-06-05T00:09:34;15.60;99.90
22742;DHT22;11538;48.884;8.696;2023-06-05T00:12:01;15.60;99.90
22742;DHT22;11538;48.884;8.696;2023-06-05T00:14:28;15.50;99.90
22742;DHT22;11538;48.884;8.696;2023-06-05T00:16:55;15.50;99.90
22742;DHT22;11538;48.884;8.696;2023-06-05T00:19:23;15.40;99.90
22742;DHT22;11538;48.884;8.696;2023-06-05T00:21:50;15.40;99.90
22742;DHT22;11538;48.884;8.696;2023-06-05T00:24:19;15.40;99.90
22742;DHT22;11538;48.884;8.696;2023-06-05T00:26:46;15.40;99.90
22742;DHT22;11538;48.884;8.696;2023-06-05T00:29:14;15.30;99.90
22742;DHT22;11538;48.884;8.696;2023-06-05T00:31:45;15.30;99.90
22742;DHT22;11538;48.884;8.696;2023-06-05T00:34:13;15.30;99.90
22742;DHT22;11538;48.884;8.696;2023-06-05T00:36:40;15.20;99.90
22742;DHT22;11538;48.884;8.696;2023-06-05T00:39:07;15.30;99.90
22742;DHT22;11538;48.884;8.696;2023-06-05T00:41:36;15.20;99.90
22742;DHT22;11538;48.884;8.696;2023-06-05T00:44:08;15.10;99.90
22742;DHT22;11538;48.884;8.696;2023-06-05T00:46:35;15.00;99.90
22742;DHT22;11538;48.884;8.696;2023-06-05T00:49:02;15.00;99.90
22742;DHT22;11538;48.884;8.696;2023-06-05T00:51:29;15.00;99.90
22742;DHT22;11538;48.884;8.696;2023-06-05T00:53:57;15.00;99.90
22742;DHT22;11538;48.884;8.696;2023-06-05T00:56:24;15.00;99.90
22742;DHT22;11538;48.884;8.696;2023-06-05T00:58:52;15.00;99.90
22742;DHT22;11538;48.884;8.696;2023-06-05T01:01:21;15.00;99.90
22742;DHT22;11538;48.884;8.696;2023-06-05T01:03:50;14.90;99.90
22742;DHT22;11538;48.884;8.696;2023-06-05T01:06:19;14.80;99.90
22742;DHT22;11538;48.884;8.696;2023-06-05T01:08:46;14.80;99.90
22742;DHT22;11538;48.884;8.696;2023-06-05T01:11:37;14.70;99.90
22742;DHT22;11538;48.884;8.696;2023-06-05T01:14:19;14.70;99.90
22742;DHT22;11538;48.884;8.696;2023-06-05T01:16:54;14.70;99.90
22742;DHT22;11538;48.884;8.696;2023-06-05T01:19:24;14.60;99.90
22742;DHT22;11538;48.884;8.696;2023-06-05T01:21:52;14.50;99.90
22742;DHT22;11538;48.884;8.696;2023-06-05T01:24:19;14.50;99.90
22742;DHT22;11538;48.884;8.696;2023-06-05T01:29:46;14.40;99.90
22742;DHT22;11538;48.884;8.696;2023-06-05T01:35:14;14.50;99.90
22742;DHT22;11538;48.884;8.696;2023-06-05T01:37:46;14.50;99.90
22742;DHT22;11538;48.884;8.696;2023-06-05T01:40:23;14.50;99.90
22742;DHT22;11538;48.884;8.696;2023-06-05T01:42:52;14.50;99.90
22742;DHT22;11538;48.884;8.696;2023-06-05T01:45:22;14.50;99.90
22742;DHT22;11538;48.884;8.696;2023-06-05T01:47:52;14.40;99.90
22742;DHT22;11538;48.884;8.696;2023-06-05T01:50:21;14.50;99.90
22742;DHT22;11538;48.884;8.696;2023-06-05T01:52:48;14.50;99.90
22742;DHT22;11538;48.884;8.696;2023-06-05T01:55:21;14.40;99.90
22742;DHT22;11538;48.884;8.696;2023-06-05T01:57:53;14.40;99.90
22742;DHT22;11538;48.884;8.696;2023-06-05T02:00:20;14.30;99.90
22742;DHT22;11538;48.884;8.696;2023-06-05T02:02:49;14.40;99.90
22742;DHT22;11538;48.884;8.696;2023-06-05T02:05:17;14.30;99.90
22742;DHT22;11538;48.884;8.696;2023-06-05T02:07:48;14.20;99.90
22742;DHT22;11538;48.884;8.696;2023-06-05T02:10:20;14.20;99.90
22742;DHT22;11538;48.884;8.696;2023-06-05T02:12:47;14.20;99.90
22742;DHT22;11538;48.884;8.696;2023-06-05T02:15:14;14.10;99.90
22742;DHT22;11538;48.884;8.696;2023-06-05T02:17:43;14.00;99.90
22742;DHT22;11538;48.884;8.696;2023-06-05T02:20:24;13.90;99.90
22742;DHT22;11538;48.884;8.696;2023-06-05T02:22:52;13.90;99.90
22742;DHT22;11538;48.884;8.696;2023-06-05T02:25:19;13.80;99.90
22742;DHT22;11538;48.884;8.696;2023-06-05T02:27:47;13.80;99.90
22742;DHT22;11538;48.884;8.696;2023-06-05T02:30:14;13.70;99.90
22742;DHT22;11538;48.884;8.696;2023-06-05T02:32:41;13.70;99.90
22742;DHT22;11538;48.884;8.696;2023-06-05T02:35:11;13.70;99.90
22742;DHT22;11538;48.884;8.696;2023-06-05T02:37:40;13.60;99.90
22742;DHT22;11538;48.884;8.696;2023-06-05T02:40:12;13.60;99.90
22742;DHT22;11538;48.884;8.696;2023-06-05T02:42:40;13.50;99.90
22742;DHT22;11538;48.884;8.696;2023-06-05T02:45:08;13.40;99.90
22742;DHT22;11538;48.884;8.696;2023-06-05T02:47:36;13.40;99.90
22742;DHT22;11538;48.884;8.696;2023-06-05T02:50:05;13.40;99.90
22742;DHT22;11538;48.884;8.696;2023-06-05T02:52:34;13.40;99.90
22742;DHT22;11538;48.884;8.696;2023-06-05T02:55:02;13.40;99.90
22742;DHT22;11538;48.884;8.696;2023-06-05T02:57:30;13.40;99.90
22742;DHT22;11538;48.884;8.696;2023-06-05T02:59:57;13.40;99.90
22742;DHT22;11538;48.884;8.696;2023-06-05T03:02:24;13.40;99.90
22742;DHT22;11538;48.884;8.696;2023-06-05T03:04:53;13.50;99.90
22742;DHT22;11538;48.884;8.696;2023-06-05T03:07:22;13.60;99.90
22742;DHT22;11538;48.884;8.696;2023-06-05T03:09:49;13.60;99.90
22742;DHT22;11538;48.884;8.696;2023-06-05T03:12:16;13.50;99.90
22742;DHT22;11538;48.884;8.696;2023-06-05T03:14:43;13.50;99.90
22742;DHT22;11538;48.884;8.696;2023-06-05T03:17:10;13.60;99.90
22742;DHT22;11538;48.884;8.696;2023-06-05T03:19:37;13.60;99.90
22742;DHT22;11538;48.884;8.696;2023-06-05T03:22:04;13.50;99.90
22742;DHT22;11538;48.884;8.696;2023-06-05T03:24:31;13.50;99.90
22742;DHT22;11538;48.884;8.696;2023-06-05T03:26:58;13.60;99.90
22742;DHT22;11538;48.884;8.696;2023-06-05T03:29:25;13.60;99.90
22742;DHT22;11538;48.884;8.696;2023-06-05T03:31:52;13.60;99.90
22742;DHT22;11538;48.884;8.696;2023-06-05T03:34:19;13.70;99.90
22742;DHT22;11538;48.884;8.696;2023-06-05T03:36:49;13.70;99.90
22742;DHT22;11538;48.884;8.696;2023-06-05T03:39:17;13.60;99.90
22742;DHT22;11538;48.884;8.696;2023-06-05T03:41:44;13.60;99.90
22742;DHT22;11538;48.884;8.696;2023-06-05T03:44:11;13.60;99.90
22742;DHT22;11538;48.884;8.696;2023-06-05T03:46:38;13.60;99.90
22742;DHT22;11538;48.884;8.696;2023-06-05T03:49:05;13.60;99.90
22742;DHT22;11538;48.884;8.696;2023-06-05T03:51:35;13.50;99.90
22742;DHT22;11538;48.884;8.696;2023-06-05T03:54:03;13.50;99.90
22742;DHT22;11538;48.884;8.696;2023-06-05T03:56:30;13.40;99.90
22742;DHT22;11538;48.884;8.696;2023-06-05T03:59:01;13.40;99.90
22742;DHT22;11538;48.884;8.696;2023-06-05T04:01:35;13.40;99.90
22742;DHT22;11538;48.884;8.696;2023-06-05T04:04:05;13.40;99.90
22742;DHT22;11538;48.884;8.696;2023-06-05T04:06:34;13.40;99.90
22742;DHT22;11538;48.884;8.696;2023-06-05T04:09:01;13.40;99.90
22742;DHT22;11538;48.884;8.696;2023-06-05T04:11:29;13.40;99.90
22742;DHT22;11538;48.884;8.696;2023-06-05T04:13:57;13.40;99.90
22742;DHT22;11538;48.884;8.696;2023-06-05T04:16:24;13.40;99.90
22742;DHT22;11538;48.884;8.696;2023-06-05T04:18:51;13.40;99.90
22742;DHT22;11538;48.884;8.696;2023-06-05T04:21:18;13.40;99.90
22742;DHT22;11538;48.884;8.696;2023-06-05T04:23:45;13.40;99.90
22742;DHT22;11538;48.884;8.696;2023-06-05T04:26:12;13.40;99.90
22742;DHT22;11538;48.884;8.696;2023-06-05T04:28:40;13.40;99.90
22742;DHT22;11538;48.884;8.696;2023-06-05T04:31:08;13.40;99.90
22742;DHT22;11538;48.884;8.696;2023-06-05T04:33:36;13.40;99.90
22742;DHT22;11538;48.884;8.696;2023-06-05T04:36:03;13.40;99.90
22742;DHT22;11538;48.884;8.696;2023-06-05T04:38:32;13.50;99.90
22742;DHT22;11538;48.884;8.696;2023-06-05T04:40:58;13.50;99.90
22742;DHT22;11538;48.884;8.696;2023-06-05T04:43:25;13.50;99.90
22742;DHT22;11538;48.884;8.696;2023-06-05T04:45:52;13.50;99.90
22742;DHT22;11538;48.884;8.696;2023-06-05T04:48:20;13.50;99.90
22742;DHT22;11538;48.884;8.696;2023-06-05T04:50:47;13.60;99.90
22742;DHT22;11538;48.884;8.696;2023-06-05T04:53:16;13.60;99.90
22742;DHT22;11538;48.884;8.696;2023-06-05T04:55:43;13.60;99.90
22742;DHT22;11538;48.884;8.696;2023-06-05T04:58:12;13.60;99.90
22742;DHT22;11538;48.884;8.696;2023-06-05T05:00:39;13.70;99.90
22742;DHT22;11538;48.884;8.696;2023-06-05T05:03:06;13.70;99.90
22742;DHT22;11538;48.884;8.696;2023-06-05T05:05:33;13.70;99.90
22742;DHT22;11538;48.884;8.696;2023-06-05T05:08:03;13.70;99.90
22742;DHT22;11538;48.884;8.696;2023-06-05T05:10:31;13.70;99.90
22742;DHT22;11538;48.884;8.696;2023-06-05T05:12:58;13.80;99.90
22742;DHT22;11538;48.884;8.696;2023-06-05T05:15:28;13.90;99.90
22742;DHT22;11538;48.884;8.696;2023-06-05T05:17:55;13.90;99.90
22742;DHT22;11538;48.884;8.696;2023-06-05T05:20:23;13.90;99.90
22742;DHT22;11538;48.884;8.696;2023-06-05T05:22:51;13.90;99.90
22742;DHT22;11538;48.884;8.696;2023-06-05T05:25:19;14.00;99.90
22742;DHT22;11538;48.884;8.696;2023-06-05T05:27:46;14.00;99.90
22742;DHT22;11538;48.884;8.696;2023-06-05T05:30:13;14.00;99.90
22742;DHT22;11538;48.884;8.696;2023-06-05T05:32:40;14.00;99.90
22742;DHT22;11538;48.884;8.696;2023-06-05T05:35:07;14.10;99.90
22742;DHT22;11538;48.884;8.696;2023-06-05T05:37:34;14.10;99.90
22742;DHT22;11538;48.884;8.696;2023-06-05T05:40:01;14.20;99.90
22742;DHT22;11538;48.884;8.696;2023-06-05T05:42:30;14.30;99.90
22742;DHT22;11538;48.884;8.696;2023-06-05T05:44:57;14.40;99.90
22742;DHT22;11538;48.884;8.696;2023-06-05T05:47:24;14.50;99.90
22742;DHT22;11538;48.884;8.696;2023-06-05T05:49:50;14.60;99.90
22742;DHT22;11538;48.884;8.696;2023-06-05T05:52:17;14.70;99.90
22742;DHT22;11538;48.884;8.696;2023-06-05T05:54:47;14.70;99.90
22742;DHT22;11538;48.884;8.696;2023-06-05T05:57:14;14.80;99.90
22742;DHT22;11538;48.884;8.696;2023-06-05T05:59:41;14.90;99.90
22742;DHT22;11538;48.884;8.696;2023-06-05T06:02:11;15.00;99.90
22742;DHT22;11538;48.884;8.696;2023-06-05T06:04:39;15.10;99.90
22742;DHT22;11538;48.884;8.696;2023-06-05T06:07:07;15.20;99.90
22742;DHT22;11538;48.884;8.696;2023-06-05T06:09:35;15.30;99.90
22742;DHT22;11538;48.884;8.696;2023-06-05T06:12:02;15.30;99.90
22742;DHT22;11538;48.884;8.696;2023-06-05T06:14:32;15.50;99.90
22742;DHT22;11538;48.884;8.696;2023-06-05T06:17:00;15.50;99.90
22742;DHT22;11538;48.884;8.696;2023-06-05T06:19:28;15.60;99.90
22742;DHT22;11538;48.884;8.696;2023-06-05T06:21:55;15.70;99.90
22742;DHT22;11538;48.884;8.696;2023-06-05T06:24:22;15.80;99.90
22742;DHT22;11538;48.884;8.696;2023-06-05T06:26:50;15.90;99.90
22742;DHT22;11538;48.884;8.696;2023-06-05T06:29:19;16.00;99.90
22742;DHT22;11538;48.884;8.696;2023-06-05T06:31:47;16.10;99.90
22742;DHT22;11538;48.884;8.696;2023-06-05T06:34:14;16.20;99.90
22742;DHT22;11538;48.884;8.696;2023-06-05T06:36:41;16.30;99.90
22742;DHT22;11538;48.884;8.696;2023-06-05T06:39:11;16.50;99.90
22742;DHT22;11538;48.884;8.696;2023-06-05T06:41:39;16.60;99.90
22742;DHT22;11538;48.884;8.696;2023-06-05T06:44:06;16.70;99.90
22742;DHT22;11538;48.884;8.696;2023-06-05T06:46:33;16.80;99.90
22742;DHT22;11538;48.884;8.696;2023-06-05T06:49:00;16.90;99.90
22742;DHT22;11538;48.884;8.696;2023-06-05T06:51:27;17.10;99.90
22742;DHT22;11538;48.884;8.696;2023-06-05T06:53:54;17.20;99.90
22742;DHT22;11538;48.884;8.696;2023-06-05T06:56:21;17.30;99.90
22742;DHT22;11538;48.884;8.696;2023-06-05T06:58:48;17.40;99.90
22742;DHT22;11538;48.884;8.696;2023-06-05T07:01:15;17.50;99.90
22742;DHT22;11538;48.884;8.696;2023-06-05T07:03:42;17.70;99.90
22742;DHT22;11538;48.884;8.696;2023-06-05T07:06:10;17.80;99.90
22742;DHT22;11538;48.884;8.696;2023-06-05T07:08:38;18.00;99.90
22742;DHT22;11538;48.884;8.696;2023-06-05T07:11:06;18.10;99.90
22742;DHT22;11538;48.884;8.696;2023-06-05T07:13:33;18.30;99.90
22742;DHT22;11538;48.884;8.696;2023-06-05T07:16:00;18.40;99.90
22742;DHT22;11538;48.884;8.696;2023-06-05T07:18:28;18.60;99.90
22742;DHT22;11538;48.884;8.696;2023-06-05T07:20:55;18.70;99.90
22742;DHT22;11538;48.884;8.696;2023-06-05T07:23:22;18.90;99.90
22742;DHT22;11538;48.884;8.696;2023-06-05T07:25:50;19.10;99.90
22742;DHT22;11538;48.884;8.696;2023-06-05T07:28:18;19.20;99.90
22742;DHT22;11538;48.884;8.696;2023-06-05T07:30:45;19.40;99.90
22742;DHT22;11538;48.884;8.696;2023-06-05T07:33:12;19.60;99.90
22742;DHT22;11538;48.884;8.696;2023-06-05T07:35:55;19.70;99.90
22742;DHT22;11538;48.884;8.696;2023-06-05T07:38:22;19.90;99.90
22742;DHT22;11538;48.884;8.696;2023-06-05T07:40:49;20.00;99.90
22742;DHT22;11538;48.884;8.696;2023-06-05T07:43:15;20.20;99.90
22742;DHT22;11538;48.884;8.696;2023-06-05T07:45:44;20.30;99.90
22742;DHT22;11538;48.884;8.696;2023-06-05T07:48:11;20.50;99.90
22742;DHT22;11538;48.884;8.696;2023-06-05T07:50:38;20.60;99.90
22742;DHT22;11538;48.884;8.696;2023-06-05T07:53:05;20.80;99.90
22742;DHT22;11538;48.884;8.696;2023-06-05T07:55:32;20.90;99.90
22742;DHT22;11538;48.884;8.696;2023-06-05T07:57:58;21.10;99.90
22742;DHT22;11538;48.884;8.696;2023-06-05T08:00:26;21.20;99.90
22742;DHT22;11538;48.884;8.696;2023-06-05T08:02:56;21.40;99.90
22742;DHT22;11538;48.884;8.696;2023-06-05T08:05:24;21.50;99.90
22742;DHT22;11538;48.884;8.696;2023-06-05T08:07:51;21.70;99.90
22742;DHT22;11538;48.884;8.696;2023-06-05T08:10:18;21.80;99.90
22742;DHT22;11538;48.884;8.696;2023-06-05T08:12:44;22.00;99.90
22742;DHT22;11538;48.884;8.696;2023-06-05T08:15:11;22.20;99.90
22742;DHT22;11538;48.884;8.696;2023-06-05T08:17:38;22.30;99.90
22742;DHT22;11538;48.884;8.696;2023-06-05T08:20:06;22.40;99.90
22742;DHT22;11538;48.884;8.696;2023-06-05T08:22:35;22.60;99.90
22742;DHT22;11538;48.884;8.696;2023-06-05T08:25:03;22.70;99.90
22742;DHT22;11538;48.884;8.696;2023-06-05T08:27:31;22.90;99.90
22742;DHT22;11538;48.884;8.696;2023-06-05T08:29:58;23.00;99.90
22742;DHT22;11538;48.884;8.696;2023-06-05T08:32:26;23.20;99.90
22742;DHT22;11538;48.884;8.696;2023-06-05T08:34:53;23.30;99.90
22742;DHT22;11538;48.884;8.696;2023-06-05T08:37:20;23.50;99.90
22742;DHT22;11538;48.884;8.696;2023-06-05T08:39:47;23.70;99.90
22742;DHT22;11538;48.884;8.696;2023-06-05T08:42:15;23.80;99.90
22742;DHT22;11538;48.884;8.696;2023-06-05T08:44:46;23.90;99.90
22742;DHT22;11538;48.884;8.696;2023-06-05T08:47:28;24.10;99.90
22742;DHT22;11538;48.884;8.696;2023-06-05T08:49:57;24.20;99.90
22742;DHT22;11538;48.884;8.696;2023-06-05T08:52:33;24.30;99.90
22742;DHT22;11538;48.884;8.696;2023-06-05T08:55:04;24.50;99.90
22742;DHT22;11538;48.884;8.696;2023-06-05T08:57:34;24.70;99.90
22742;DHT22;11538;48.884;8.696;2023-06-05T09:00:03;24.80;99.90
22742;DHT22;11538;48.884;8.696;2023-06-05T09:02:34;24.90;99.90
22742;DHT22;11538;48.884;8.696;2023-06-05T09:05:04;25.00;99.90
22742;DHT22;11538;48.884;8.696;2023-06-05T09:07:32;25.10;99.90
22742;DHT22;11538;48.884;8.696;2023-06-05T09:09:59;25.20;99.90
22742;DHT22;11538;48.884;8.696;2023-06-05T09:12:26;25.40;99.90
22742;DHT22;11538;48.884;8.696;2023-06-05T09:14:53;25.40;99.90
22742;DHT22;11538;48.884;8.696;2023-06-05T09:17:23;25.60;99.90
22742;DHT22;11538;48.884;8.696;2023-06-05T09:19:51;25.60;99.90
22742;DHT22;11538;48.884;8.696;2023-06-05T09:22:32;25.70;99.90
22742;DHT22;11538;48.884;8.696;2023-06-05T09:25:01;26.00;99.90
22742;DHT22;11538;48.884;8.696;2023-06-05T09:27:28;26.10;99.90
22742;DHT22;11538;48.884;8.696;2023-06-05T09:30:02;26.20;99.90
22742;DHT22;11538;48.884;8.696;2023-06-05T09:32:31;26.30;99.90
22742;DHT22;11538;48.884;8.696;2023-06-05T09:34:58;26.40;99.90
22742;DHT22;11538;48.884;8.696;2023-06-05T09:37:34;26.60;99.90
22742;DHT22;11538;48.884;8.696;2023-06-05T09:40:03;26.70;99.90
22742;DHT22;11538;48.884;8.696;2023-06-05T09:42:35;26.90;99.90
22742;DHT22;11538;48.884;8.696;2023-06-05T09:45:02;26.90;99.90
22742;DHT22;11538;48.884;8.696;2023-06-05T09:47:31;27.00;99.90
22742;DHT22;11538;48.884;8.696;2023-06-05T09:50:21;27.10;99.90
22742;DHT22;11538;48.884;8.696;2023-06-05T09:52:56;27.30;99.90
22742;DHT22;11538;48.884;8.696;2023-06-05T09:55:25;27.50;99.90
22742;DHT22;11538;48.884;8.696;2023-06-05T09:57:56;27.50;99.90
22742;DHT22;11538;48.884;8.696;2023-06-05T10:00:27;27.50;99.90
22742;DHT22;11538;48.884;8.696;2023-06-05T10:02:56;27.50;99.90
22742;DHT22;11538;48.884;8.696;2023-06-05T10:05:24;27.50;99.90
22742;DHT22;11538;48.884;8.696;2023-06-05T10:07:53;27.40;99.90
22742;DHT22;11538;48.884;8.696;2023-06-05T10:10:21;27.50;99.90
22742;DHT22;11538;48.884;8.696;2023-06-05T10:12:49;27.50;99.90
22742;DHT22;11538;48.884;8.696;2023-06-05T10:15:17;27.50;99.90
22742;DHT22;11538;48.884;8.696;2023-06-05T10:17:45;27.70;99.90
22742;DHT22;11538;48.884;8.696;2023-06-05T10:20:15;27.70;99.90
22742;DHT22;11538;48.884;8.696;2023-06-05T10:22:45;27.60;99.90
22742;DHT22;11538;48.884;8.696;2023-06-05T10:25:13;27.50;99.90
22742;DHT22;11538;48.884;8.696;2023-06-05T10:30:49;27.20;99.90
22742;DHT22;11538;48.884;8.696;2023-06-05T10:40:23;27.70;99.90
22742;DHT22;11538;48.884;8.696;2023-06-05T10:42:52;28.00;99.90
22742;DHT22;11538;48.884;8.696;2023-06-05T10:45:31;28.10;99.90
22742;DHT22;11538;48.884;8.696;2023-06-05T10:47:58;28.30;99.90
22742;DHT22;11538;48.884;8.696;2023-06-05T10:50:28;28.50;99.90
22742;DHT22;11538;48.884;8.696;2023-06-05T10:52:58;28.70;99.90
22742;DHT22;11538;48.884;8.696;2023-06-05T10:55:26;28.90;99.90
22742;DHT22;11538;48.884;8.696;2023-06-05T10:58:08;29.00;99.90
22742;DHT22;11538;48.884;8.696;2023-06-05T11:01:15;29.00;99.90
22742;DHT22;11538;48.884;8.696;2023-06-05T11:03:59;29.20;99.90
22742;DHT22;11538;48.884;8.696;2023-06-05T11:06:27;29.50;99.90
22742;DHT22;11538;48.884;8.696;2023-06-05T11:09:14;29.60;99.90
22742;DHT22;11538;48.884;8.696;2023-06-05T11:11:57;29.60;99.90
22742;DHT22;11538;48.884;8.696;2023-06-05T11:14:46;29.60;99.90
22742;DHT22;11538;48.884;8.696;2023-06-05T11:17:42;29.60;99.90
22742;DHT22;11538;48.884;8.696;2023-06-05T11:25:27;30.40;99.90
22742;DHT22;11538;48.884;8.696;2023-06-05T11:28:06;30.60;99.90
22742;DHT22;11538;48.884;8.696;2023-06-05T11:30:42;30.90;99.90
22742;DHT22;11538;48.884;8.696;2023-06-05T11:33:17;31.10;99.90
22742;DHT22;11538;48.884;8.696;2023-06-05T11:35:47;31.40;99.90
22742;DHT22;11538;48.884;8.696;2023-06-05T11:38:17;31.60;99.90
22742;DHT22;11538;48.884;8.696;2023-06-05T11:40:50;31.80;99.90
22742;DHT22;11538;48.884;8.696;2023-06-05T11:43:17;32.10;99.90
22742;DHT22;11538;48.884;8.696;2023-06-05T11:45:52;32.20;99.90
22742;DHT22;11538;48.884;8.696;2023-06-05T11:48:20;32.00;99.90
22742;DHT22;11538;48.884;8.696;2023-06-05T11:51:05;31.90;99.90
22742;DHT22;11538;48.884;8.696;2023-06-05T11:53:33;32.10;99.90
22742;DHT22;11538;48.884;8.696;2023-06-05T11:56:00;32.40;99.90
22742;DHT22;11538;48.884;8.696;2023-06-05T11:58:32;32.70;99.90
22742;DHT22;11538;48.884;8.696;2023-06-05T12:03:45;33.20;99.90
22742;DHT22;11538;48.884;8.696;2023-06-05T12:06:15;33.40;99.90
22742;DHT22;11538;48.884;8.696;2023-06-05T12:08:44;33.60;99.90
22742;DHT22;11538;48.884;8.696;2023-06-05T12:13:51;34.00;99.90
22742;DHT22;11538;48.884;8.696;2023-06-05T12:16:30;34.10;99.90
22742;DHT22;11538;48.884;8.696;2023-06-05T12:19:00;34.30;99.90
22742;DHT22;11538;48.884;8.696;2023-06-05T12:21:45;34.40;99.90
22742;DHT22;11538;48.884;8.696;2023-06-05T12:24:14;34.70;99.90
22742;DHT22;11538;48.884;8.696;2023-06-05T12:29:27;35.20;99.90
22742;DHT22;11538;48.884;8.696;2023-06-05T12:31:57;35.40;99.90
22742;DHT22;11538;48.884;8.696;2023-06-05T12:34:44;35.50;99.90
22742;DHT22;11538;48.884;8.696;2023-06-05T12:37:32;35.60;99.90
22742;DHT22;11538;48.884;8.696;2023-06-05T12:40:04;35.70;99.90
22742;DHT22;11538;48.884;8.696;2023-06-05T12:42:39;35.80;99.90
22742;DHT22;11538;48.884;8.696;2023-06-05T12:45:08;35.80;99.90
22742;DHT22;11538;48.884;8.696;2023-06-05T12:47:37;35.90;99.90
22742;DHT22;11538;48.884;8.696;2023-06-05T12:50:05;36.10;99.90
22742;DHT22;11538;48.884;8.696;2023-06-05T12:52:34;36.10;99.90
22742;DHT22;11538;48.884;8.696;2023-06-05T12:55:01;36.10;99.90
22742;DHT22;11538;48.884;8.696;2023-06-05T12:57:30;36.00;99.90
22742;DHT22;11538;48.884;8.696;2023-06-05T12:59:58;36.10;99.90
22742;DHT22;11538;48.884;8.696;2023-06-05T13:02:25;36.10;99.90
22742;DHT22;11538;48.884;8.696;2023-06-05T13:04:52;35.70;99.90
22742;DHT22;11538;48.884;8.696;2023-06-05T13:07:19;35.10;99.90
22742;DHT22;11538;48.884;8.696;2023-06-05T13:09:48;34.60;99.90
22742;DHT22;11538;48.884;8.696;2023-06-05T13:12:16;34.50;99.90
22742;DHT22;11538;48.884;8.696;2023-06-05T13:14:43;34.60;99.90
22742;DHT22;11538;48.884;8.696;2023-06-05T13:17:10;34.70;99.90
22742;DHT22;11538;48.884;8.696;2023-06-05T13:19:37;34.90;99.90
22742;DHT22;11538;48.884;8.696;2023-06-05T13:22:05;35.10;99.90
22742;DHT22;11538;48.884;8.696;2023-06-05T13:24:32;35.40;99.90
22742;DHT22;11538;48.884;8.696;2023-06-05T13:26:59;35.60;99.90
22742;DHT22;11538;48.884;8.696;2023-06-05T13:29:26;35.80;99.90
22742;DHT22;11538;48.884;8.696;2023-06-05T13:31:53;36.00;99.90
22742;DHT22;11538;48.884;8.696;2023-06-05T13:34:20;36.20;99.90
22742;DHT22;11538;48.884;8.696;2023-06-05T13:36:47;36.30;99.90
22742;DHT22;11538;48.884;8.696;2023-06-05T13:39:16;36.50;99.90
22742;DHT22;11538;48.884;8.696;2023-06-05T13:41:43;36.60;99.90
22742;DHT22;11538;48.884;8.696;2023-06-05T13:44:10;36.60;99.90
22742;DHT22;11538;48.884;8.696;2023-06-05T13:46:37;36.60;99.90
22742;DHT22;11538;48.884;8.696;2023-06-05T13:49:03;36.60;99.90
22742;DHT22;11538;48.884;8.696;2023-06-05T13:51:30;36.60;99.90
22742;DHT22;11538;48.884;8.696;2023-06-05T13:53:57;36.70;99.90
22742;DHT22;11538;48.884;8.696;2023-06-05T13:56:24;36.70;99.90
22742;DHT22;11538;48.884;8.696;2023-06-05T13:58:52;36.60;99.90
22742;DHT22;11538;48.884;8.696;2023-06-05T14:01:19;36.50;99.90
22742;DHT22;11538;48.884;8.696;2023-06-05T14:03:46;36.40;99.90
22742;DHT22;11538;48.884;8.696;2023-06-05T14:06:17;36.40;99.90
22742;DHT22;11538;48.884;8.696;2023-06-05T14:08:45;36.40;99.90
22742;DHT22;11538;48.884;8.696;2023-06-05T14:11:12;36.50;99.90
22742;DHT22;11538;48.884;8.696;2023-06-05T14:13:39;36.50;99.90
22742;DHT22;11538;48.884;8.696;2023-06-05T14:16:08;36.40;99.90
22742;DHT22;11538;48.884;8.696;2023-06-05T14:18:39;36.30;99.90
22742;DHT22;11538;48.884;8.696;2023-06-05T14:21:06;36.30;99.90
22742;DHT22;11538;48.884;8.696;2023-06-05T14:23:33;36.20;99.90
22742;DHT22;11538;48.884;8.696;2023-06-05T14:26:00;36.00;99.90
22742;DHT22;11538;48.884;8.696;2023-06-05T14:28:27;35.80;99.90
22742;DHT22;11538;48.884;8.696;2023-06-05T14:30:55;35.70;99.90
22742;DHT22;11538;48.884;8.696;2023-06-05T14:33:22;35.60;99.90
22742;DHT22;11538;48.884;8.696;2023-06-05T14:35:48;35.60;99.90
22742;DHT22;11538;48.884;8.696;2023-06-05T14:38:15;35.50;99.90
22742;DHT22;11538;48.884;8.696;2023-06-05T14:40:42;35.50;99.90
22742;DHT22;11538;48.884;8.696;2023-06-05T14:43:09;35.40;99.90
22742;DHT22;11538;48.884;8.696;2023-06-05T14:45:36;35.20;99.90
22742;DHT22;11538;48.884;8.696;2023-06-05T14:48:03;35.20;99.90
22742;DHT22;11538;48.884;8.696;2023-06-05T14:50:30;35.10;99.90
22742;DHT22;11538;48.884;8.696;2023-06-05T14:52:57;35.10;99.90
22742;DHT22;11538;48.884;8.696;2023-06-05T14:55:24;34.90;99.90
22742;DHT22;11538;48.884;8.696;2023-06-05T14:57:51;34.80;99.90
22742;DHT22;11538;48.884;8.696;2023-06-05T15:00:18;34.70;99.90
22742;DHT22;11538;48.884;8.696;2023-06-05T15:02:46;34.70;99.90
22742;DHT22;11538;48.884;8.696;2023-06-05T15:05:13;34.50;99.90
22742;DHT22;11538;48.884;8.696;2023-06-05T15:07:41;34.40;99.90
22742;DHT22;11538;48.884;8.696;2023-06-05T15:10:10;34.30;99.90
22742;DHT22;11538;48.884;8.696;2023-06-05T15:12:40;34.20;99.90
22742;DHT22;11538;48.884;8.696;2023-06-05T15:15:08;34.10;99.90
22742;DHT22;11538;48.884;8.696;2023-06-05T15:17:38;33.90;99.90
22742;DHT22;11538;48.884;8.696;2023-06-05T15:20:05;33.90;99.90
22742;DHT22;11538;48.884;8.696;2023-06-05T15:22:33;33.80;99.90
22742;DHT22;11538;48.884;8.696;2023-06-05T15:25:00;33.70;99.90
22742;DHT22;11538;48.884;8.696;2023-06-05T15:27:27;33.60;99.90
22742;DHT22;11538;48.884;8.696;2023-06-05T15:29:54;33.50;99.90
22742;DHT22;11538;48.884;8.696;2023-06-05T15:32:21;33.50;99.90
22742;DHT22;11538;48.884;8.696;2023-06-05T15:34:48;33.30;99.90
22742;DHT22;11538;48.884;8.696;2023-06-05T15:37:15;33.30;99.90
22742;DHT22;11538;48.884;8.696;2023-06-05T15:39:42;33.10;99.90
22742;DHT22;11538;48.884;8.696;2023-06-05T15:42:09;33.00;99.90
22742;DHT22;11538;48.884;8.696;2023-06-05T15:44:39;32.90;99.90
22742;DHT22;11538;48.884;8.696;2023-06-05T15:47:07;32.80;99.90
22742;DHT22;11538;48.884;8.696;2023-06-05T15:49:34;32.60;99.90
22742;DHT22;11538;48.884;8.696;2023-06-05T15:52:01;32.50;99.90
22742;DHT22;11538;48.884;8.696;2023-06-05T15:54:28;32.30;99.90
22742;DHT22;11538;48.884;8.696;2023-06-05T15:57:16;32.10;99.90
22742;DHT22;11538;48.884;8.696;2023-06-05T15:59:46;31.90;99.90
22742;DHT22;11538;48.884;8.696;2023-06-05T16:02:16;31.60;99.90
22742;DHT22;11538;48.884;8.696;2023-06-05T16:04:43;31.20;99.90
22742;DHT22;11538;48.884;8.696;2023-06-05T16:07:11;30.90;99.90
22742;DHT22;11538;48.884;8.696;2023-06-05T16:09:38;30.60;99.90
22742;DHT22;11538;48.884;8.696;2023-06-05T16:12:05;30.20;99.90